sensor_id;sensor_type;location;lat;lon;timestamp;temperature;humidity
44851;DHT22;30583;48.714;9.386;2024-01-30T00:02:15;5.30;66.60
44851;DHT22;30583;48.714;9.386;2024-01-30T00:04:40;5.40;66.40
44851;DHT22;30583;48.714;9.386;2024-01-30T00:07:06;5.60;66.20
44851;DHT22;30583;48.714;9.386;2024-01-30T00:09:31;5.40;66.10
44851;DHT22;30583;48.714;9.386;2024-01-30T00:11:57;5.30;66.20
44851;DHT22;30583;48.714;9.386;2024-01-30T00:14:23;5.50;66.10
44851;DHT22;30583;48.714;9.386;2024-01-30T00:16:48;5.60;65.80
44851;DHT22;30583;48.714;9.386;2024-01-30T00:19:14;5.40;66.20
44851;DHT22;30583;48.714;9.386;2024-01-30T00:21:39;5.50;66.40
44851;DHT22;30583;48.714;9.386;2024-01-30T00:24:05;5.40;66.10
44851;DHT22;30583;48.714;9.386;2024-01-30T00:26:31;4.90;67.40
44851;DHT22;30583;48.714;9.386;2024-01-30T00:28:56;5.30;67.30
44851;DHT22;30583;48.714;9.386;2024-01-30T00:31:22;5.30;66.80
44851;DHT22;30583;48.714;9.386;2024-01-30T00:33:47;5.60;66.30
44851;DHT22;30583;48.714;9.386;2024-01-30T00:36:13;5.40;66.60
44851;DHT22;30583;48.714;9.386;2024-01-30T00:38:39;5.60;66.30
44851;DHT22;30583;48.714;9.386;2024-01-30T00:41:07;5.60;66.20
44851;DHT22;30583;48.714;9.386;2024-01-30T00:43:33;5.60;66.20
44851;DHT22;30583;48.714;9.386;2024-01-30T00:45:59;5.60;66.00
44851;DHT22;30583;48.714;9.386;2024-01-30T00:48:24;5.20;67.00
44851;DHT22;30583;48.714;9.386;2024-01-30T00:50:50;4.80;68.30
44851;DHT22;30583;48.714;9.386;2024-01-30T00:53:16;4.80;68.90
44851;DHT22;30583;48.714;9.386;2024-01-30T00:55:41;4.80;69.10
44851;DHT22;30583;48.714;9.386;2024-01-30T00:58:07;4.70;69.40
44851;DHT22;30583;48.714;9.386;2024-01-30T01:00:33;4.40;70.00
44851;DHT22;30583;48.714;9.386;2024-01-30T01:02:59;4.50;69.90
44851;DHT22;30583;48.714;9.386;2024-01-30T01:05:25;5.00;68.90
44851;DHT22;30583;48.714;9.386;2024-01-30T01:07:51;5.20;67.80
44851;DHT22;30583;48.714;9.386;2024-01-30T01:10:17;5.20;67.60
44851;DHT22;30583;48.714;9.386;2024-01-30T01:12:44;5.10;67.30
44851;DHT22;30583;48.714;9.386;2024-01-30T01:15:10;5.10;67.70
44851;DHT22;30583;48.714;9.386;2024-01-30T01:17:39;5.20;67.20
44851;DHT22;30583;48.714;9.386;2024-01-30T01:20:05;4.90;67.80
44851;DHT22;30583;48.714;9.386;2024-01-30T01:22:32;5.00;67.60
44851;DHT22;30583;48.714;9.386;2024-01-30T01:25:00;4.80;68.20
44851;DHT22;30583;48.714;9.386;2024-01-30T01:27:26;5.00;68.30
44851;DHT22;30583;48.714;9.386;2024-01-30T01:29:52;5.00;67.60
44851;DHT22;30583;48.714;9.386;2024-01-30T01:32:18;5.20;67.60
44851;DHT22;30583;48.714;9.386;2024-01-30T01:34:44;5.30;66.80
44851;DHT22;30583;48.714;9.386;2024-01-30T01:37:10;5.20;67.10
44851;DHT22;30583;48.714;9.386;2024-01-30T01:39:35;4.60;69.00
44851;DHT22;30583;48.714;9.386;2024-01-30T01:42:01;4.80;68.90
44851;DHT22;30583;48.714;9.386;2024-01-30T01:44:27;3.90;69.90
44851;DHT22;30583;48.714;9.386;2024-01-30T01:46:54;4.00;71.30
44851;DHT22;30583;48.714;9.386;2024-01-30T01:49:20;4.60;69.40
44851;DHT22;30583;48.714;9.386;2024-01-30T01:51:47;4.90;68.60
44851;DHT22;30583;48.714;9.386;2024-01-30T01:54:14;4.90;68.10
44851;DHT22;30583;48.714;9.386;2024-01-30T01:56:42;4.90;67.60
44851;DHT22;30583;48.714;9.386;2024-01-30T01:59:08;5.10;67.60
44851;DHT22;30583;48.714;9.386;2024-01-30T02:01:36;5.20;67.30
44851;DHT22;30583;48.714;9.386;2024-01-30T02:04:02;5.00;67.90
44851;DHT22;30583;48.714;9.386;2024-01-30T02:06:28;5.20;67.50
44851;DHT22;30583;48.714;9.386;2024-01-30T02:08:56;5.10;67.30
44851;DHT22;30583;48.714;9.386;2024-01-30T02:11:22;4.70;68.30
44851;DHT22;30583;48.714;9.386;2024-01-30T02:13:49;5.00;68.00
44851;DHT22;30583;48.714;9.386;2024-01-30T02:16:14;5.20;67.70
44851;DHT22;30583;48.714;9.386;2024-01-30T02:18:40;5.30;67.10
44851;DHT22;30583;48.714;9.386;2024-01-30T02:21:11;5.20;67.10
44851;DHT22;30583;48.714;9.386;2024-01-30T02:23:38;5.20;67.30
44851;DHT22;30583;48.714;9.386;2024-01-30T02:26:04;5.30;66.90
44851;DHT22;30583;48.714;9.386;2024-01-30T02:28:30;5.30;66.90
44851;DHT22;30583;48.714;9.386;2024-01-30T02:30:56;5.10;67.10
44851;DHT22;30583;48.714;9.386;2024-01-30T02:33:21;5.20;67.00
44851;DHT22;30583;48.714;9.386;2024-01-30T02:35:48;5.20;66.80
44851;DHT22;30583;48.714;9.386;2024-01-30T02:38:13;5.30;66.50
44851;DHT22;30583;48.714;9.386;2024-01-30T02:40:39;5.30;66.50
44851;DHT22;30583;48.714;9.386;2024-01-30T02:43:05;5.20;66.70
44851;DHT22;30583;48.714;9.386;2024-01-30T02:45:30;5.30;66.40
44851;DHT22;30583;48.714;9.386;2024-01-30T02:47:56;5.30;66.40
44851;DHT22;30583;48.714;9.386;2024-01-30T02:50:21;5.20;66.80
44851;DHT22;30583;48.714;9.386;2024-01-30T02:52:47;5.10;66.80
44851;DHT22;30583;48.714;9.386;2024-01-30T02:55:12;5.10;66.90
44851;DHT22;30583;48.714;9.386;2024-01-30T02:57:38;5.20;66.70
44851;DHT22;30583;48.714;9.386;2024-01-30T03:00:05;5.10;67.00
44851;DHT22;30583;48.714;9.386;2024-01-30T03:02:32;5.10;66.60
44851;DHT22;30583;48.714;9.386;2024-01-30T03:04:58;5.00;66.60
44851;DHT22;30583;48.714;9.386;2024-01-30T03:07:24;5.10;66.60
44851;DHT22;30583;48.714;9.386;2024-01-30T03:09:50;4.40;68.60
44851;DHT22;30583;48.714;9.386;2024-01-30T03:12:15;4.70;67.90
44851;DHT22;30583;48.714;9.386;2024-01-30T03:14:41;4.60;68.10
44851;DHT22;30583;48.714;9.386;2024-01-30T03:17:07;4.70;68.10
44851;DHT22;30583;48.714;9.386;2024-01-30T03:19:33;4.60;68.10
44851;DHT22;30583;48.714;9.386;2024-01-30T03:21:59;4.40;68.40
44851;DHT22;30583;48.714;9.386;2024-01-30T03:24:24;4.40;68.80
44851;DHT22;30583;48.714;9.386;2024-01-30T03:26:50;4.50;68.30
44851;DHT22;30583;48.714;9.386;2024-01-30T03:29:15;4.70;67.90
44851;DHT22;30583;48.714;9.386;2024-01-30T03:31:41;4.80;67.40
44851;DHT22;30583;48.714;9.386;2024-01-30T03:34:06;4.70;67.20
44851;DHT22;30583;48.714;9.386;2024-01-30T03:36:32;4.70;67.30
44851;DHT22;30583;48.714;9.386;2024-01-30T03:38:59;4.80;67.30
44851;DHT22;30583;48.714;9.386;2024-01-30T03:41:25;4.90;66.70
44851;DHT22;30583;48.714;9.386;2024-01-30T03:43:51;4.80;67.20
44851;DHT22;30583;48.714;9.386;2024-01-30T03:46:16;4.80;66.80
44851;DHT22;30583;48.714;9.386;2024-01-30T03:48:42;4.50;67.30
44851;DHT22;30583;48.714;9.386;2024-01-30T03:51:08;4.40;67.90
44851;DHT22;30583;48.714;9.386;2024-01-30T03:53:35;4.60;67.30
44851;DHT22;30583;48.714;9.386;2024-01-30T03:56:00;4.20;67.20
44851;DHT22;30583;48.714;9.386;2024-01-30T03:58:26;3.60;70.10
44851;DHT22;30583;48.714;9.386;2024-01-30T04:00:51;3.80;70.30
44851;DHT22;30583;48.714;9.386;2024-01-30T04:03:17;4.00;69.40
44851;DHT22;30583;48.714;9.386;2024-01-30T04:05:43;4.30;68.40
44851;DHT22;30583;48.714;9.386;2024-01-30T04:08:09;4.50;67.90
44851;DHT22;30583;48.714;9.386;2024-01-30T04:10:34;4.60;67.00
44851;DHT22;30583;48.714;9.386;2024-01-30T04:13:00;4.60;66.80
44851;DHT22;30583;48.714;9.386;2024-01-30T04:15:26;4.30;67.80
44851;DHT22;30583;48.714;9.386;2024-01-30T04:17:52;4.30;67.00
44851;DHT22;30583;48.714;9.386;2024-01-30T04:20:17;4.20;68.00
44851;DHT22;30583;48.714;9.386;2024-01-30T04:22:46;4.40;67.90
44851;DHT22;30583;48.714;9.386;2024-01-30T04:25:13;4.00;68.60
44851;DHT22;30583;48.714;9.386;2024-01-30T04:27:38;4.20;68.10
44851;DHT22;30583;48.714;9.386;2024-01-30T04:30:04;4.30;67.40
44851;DHT22;30583;48.714;9.386;2024-01-30T04:32:30;4.30;67.60
44851;DHT22;30583;48.714;9.386;2024-01-30T04:34:56;4.30;67.90
44851;DHT22;30583;48.714;9.386;2024-01-30T04:37:21;4.20;68.20
44851;DHT22;30583;48.714;9.386;2024-01-30T04:39:47;3.80;69.30
44851;DHT22;30583;48.714;9.386;2024-01-30T04:42:12;3.70;70.20
44851;DHT22;30583;48.714;9.386;2024-01-30T04:44:38;3.90;70.00
44851;DHT22;30583;48.714;9.386;2024-01-30T04:47:04;3.40;70.70
44851;DHT22;30583;48.714;9.386;2024-01-30T04:49:31;3.50;70.70
44851;DHT22;30583;48.714;9.386;2024-01-30T04:51:57;4.10;69.80
44851;DHT22;30583;48.714;9.386;2024-01-30T04:54:23;4.30;68.70
44851;DHT22;30583;48.714;9.386;2024-01-30T04:56:48;4.30;68.50
44851;DHT22;30583;48.714;9.386;2024-01-30T04:59:14;4.20;68.50
44851;DHT22;30583;48.714;9.386;2024-01-30T05:01:39;4.00;69.30
44851;DHT22;30583;48.714;9.386;2024-01-30T05:04:09;4.10;69.00
44851;DHT22;30583;48.714;9.386;2024-01-30T05:06:35;4.20;68.80
44851;DHT22;30583;48.714;9.386;2024-01-30T05:09:00;4.10;69.10
44851;DHT22;30583;48.714;9.386;2024-01-30T05:11:26;4.40;68.10
44851;DHT22;30583;48.714;9.386;2024-01-30T05:13:52;4.10;68.50
44851;DHT22;30583;48.714;9.386;2024-01-30T05:16:17;4.40;68.10
44851;DHT22;30583;48.714;9.386;2024-01-30T05:18:43;4.20;68.00
44851;DHT22;30583;48.714;9.386;2024-01-30T05:21:09;4.20;68.90
44851;DHT22;30583;48.714;9.386;2024-01-30T05:23:35;4.30;68.00
44851;DHT22;30583;48.714;9.386;2024-01-30T05:26:01;4.30;67.90
44851;DHT22;30583;48.714;9.386;2024-01-30T05:28:27;4.40;67.60
44851;DHT22;30583;48.714;9.386;2024-01-30T05:30:55;4.30;67.30
44851;DHT22;30583;48.714;9.386;2024-01-30T05:33:24;3.90;68.70
44851;DHT22;30583;48.714;9.386;2024-01-30T05:35:49;4.10;69.10
44851;DHT22;30583;48.714;9.386;2024-01-30T05:38:18;4.40;67.50
44851;DHT22;30583;48.714;9.386;2024-01-30T05:40:43;4.20;67.90
44851;DHT22;30583;48.714;9.386;2024-01-30T05:43:09;4.20;68.10
44851;DHT22;30583;48.714;9.386;2024-01-30T05:45:34;4.20;67.50
44851;DHT22;30583;48.714;9.386;2024-01-30T05:48:01;4.10;67.60
44851;DHT22;30583;48.714;9.386;2024-01-30T05:50:26;3.70;68.40
44851;DHT22;30583;48.714;9.386;2024-01-30T05:52:52;4.00;68.30
44851;DHT22;30583;48.714;9.386;2024-01-30T05:55:18;4.10;68.10
44851;DHT22;30583;48.714;9.386;2024-01-30T05:57:43;3.90;68.30
44851;DHT22;30583;48.714;9.386;2024-01-30T06:00:09;3.90;68.60
44851;DHT22;30583;48.714;9.386;2024-01-30T06:02:35;3.80;69.50
44851;DHT22;30583;48.714;9.386;2024-01-30T06:05:01;4.10;68.80
44851;DHT22;30583;48.714;9.386;2024-01-30T06:07:26;4.20;67.70
44851;DHT22;30583;48.714;9.386;2024-01-30T06:09:52;3.80;68.50
44851;DHT22;30583;48.714;9.386;2024-01-30T06:12:17;3.70;69.10
44851;DHT22;30583;48.714;9.386;2024-01-30T06:14:43;3.70;68.50
44851;DHT22;30583;48.714;9.386;2024-01-30T06:17:09;3.70;69.00
44851;DHT22;30583;48.714;9.386;2024-01-30T06:19:35;4.40;69.80
44851;DHT22;30583;48.714;9.386;2024-01-30T06:22:00;4.90;68.30
44851;DHT22;30583;48.714;9.386;2024-01-30T06:24:26;5.10;66.80
44851;DHT22;30583;48.714;9.386;2024-01-30T06:26:53;5.00;65.90
44851;DHT22;30583;48.714;9.386;2024-01-30T06:29:18;5.00;65.60
44851;DHT22;30583;48.714;9.386;2024-01-30T06:31:44;4.60;65.70
44851;DHT22;30583;48.714;9.386;2024-01-30T06:34:09;4.20;67.00
44851;DHT22;30583;48.714;9.386;2024-01-30T06:36:37;4.10;67.70
44851;DHT22;30583;48.714;9.386;2024-01-30T06:39:03;5.00;76.80
44851;DHT22;30583;48.714;9.386;2024-01-30T06:41:29;4.00;67.70
44851;DHT22;30583;48.714;9.386;2024-01-30T06:43:55;3.30;70.60
44851;DHT22;30583;48.714;9.386;2024-01-30T06:46:21;3.70;69.40
44851;DHT22;30583;48.714;9.386;2024-01-30T06:48:46;3.90;68.60
44851;DHT22;30583;48.714;9.386;2024-01-30T06:51:12;3.70;69.10
44851;DHT22;30583;48.714;9.386;2024-01-30T06:53:38;3.90;68.80
44851;DHT22;30583;48.714;9.386;2024-01-30T06:56:03;3.40;70.30
44851;DHT22;30583;48.714;9.386;2024-01-30T06:58:29;3.70;70.30
44851;DHT22;30583;48.714;9.386;2024-01-30T07:00:55;4.10;68.60
44851;DHT22;30583;48.714;9.386;2024-01-30T07:03:21;3.80;68.60
44851;DHT22;30583;48.714;9.386;2024-01-30T07:05:47;3.30;69.90
44851;DHT22;30583;48.714;9.386;2024-01-30T07:08:12;3.50;70.40
44851;DHT22;30583;48.714;9.386;2024-01-30T07:10:38;3.70;69.80
44851;DHT22;30583;48.714;9.386;2024-01-30T07:13:04;3.40;70.50
44851;DHT22;30583;48.714;9.386;2024-01-30T07:15:31;3.10;70.80
44851;DHT22;30583;48.714;9.386;2024-01-30T07:17:56;3.10;71.50
44851;DHT22;30583;48.714;9.386;2024-01-30T07:20:22;3.20;71.70
44851;DHT22;30583;48.714;9.386;2024-01-30T07:22:48;3.50;71.10
44851;DHT22;30583;48.714;9.386;2024-01-30T07:25:13;3.50;70.50
44851;DHT22;30583;48.714;9.386;2024-01-30T07:27:39;3.80;69.80
44851;DHT22;30583;48.714;9.386;2024-01-30T07:30:05;4.00;69.10
44851;DHT22;30583;48.714;9.386;2024-01-30T07:32:31;3.80;69.10
44851;DHT22;30583;48.714;9.386;2024-01-30T07:34:57;3.40;70.90
44851;DHT22;30583;48.714;9.386;2024-01-30T07:37:22;3.40;70.50
44851;DHT22;30583;48.714;9.386;2024-01-30T07:39:48;3.30;71.50
44851;DHT22;30583;48.714;9.386;2024-01-30T07:42:14;3.80;70.30
44851;DHT22;30583;48.714;9.386;2024-01-30T07:44:39;4.10;69.10
44851;DHT22;30583;48.714;9.386;2024-01-30T07:47:05;3.70;69.80
44851;DHT22;30583;48.714;9.386;2024-01-30T07:49:31;3.80;70.30
44851;DHT22;30583;48.714;9.386;2024-01-30T07:51:56;3.60;70.60
44851;DHT22;30583;48.714;9.386;2024-01-30T07:54:22;3.60;70.90
44851;DHT22;30583;48.714;9.386;2024-01-30T07:56:48;3.70;71.00
44851;DHT22;30583;48.714;9.386;2024-01-30T07:59:14;3.60;70.90
44851;DHT22;30583;48.714;9.386;2024-01-30T08:01:41;3.40;71.60
44851;DHT22;30583;48.714;9.386;2024-01-30T08:04:06;3.40;72.10
44851;DHT22;30583;48.714;9.386;2024-01-30T08:06:33;3.60;71.40
44851;DHT22;30583;48.714;9.386;2024-01-30T08:08:58;3.50;71.80
44851;DHT22;30583;48.714;9.386;2024-01-30T08:11:24;3.80;71.50
44851;DHT22;30583;48.714;9.386;2024-01-30T08:13:55;4.10;70.50
44851;DHT22;30583;48.714;9.386;2024-01-30T08:16:20;3.80;71.20
44851;DHT22;30583;48.714;9.386;2024-01-30T08:18:46;3.70;71.40
44851;DHT22;30583;48.714;9.386;2024-01-30T08:21:11;3.70;71.60
44851;DHT22;30583;48.714;9.386;2024-01-30T08:23:40;4.00;71.20
44851;DHT22;30583;48.714;9.386;2024-01-30T08:26:05;3.90;70.80
44851;DHT22;30583;48.714;9.386;2024-01-30T08:28:31;4.00;71.50
44851;DHT22;30583;48.714;9.386;2024-01-30T08:30:57;4.30;70.80
44851;DHT22;30583;48.714;9.386;2024-01-30T08:33:22;4.10;71.00
44851;DHT22;30583;48.714;9.386;2024-01-30T08:35:48;4.20;71.20
44851;DHT22;30583;48.714;9.386;2024-01-30T08:38:13;4.20;71.10
44851;DHT22;30583;48.714;9.386;2024-01-30T08:40:39;4.20;71.60
44851;DHT22;30583;48.714;9.386;2024-01-30T08:43:05;4.20;71.60
44851;DHT22;30583;48.714;9.386;2024-01-30T08:45:30;4.40;71.40
44851;DHT22;30583;48.714;9.386;2024-01-30T08:47:56;4.50;70.90
44851;DHT22;30583;48.714;9.386;2024-01-30T08:50:22;4.40;71.10
44851;DHT22;30583;48.714;9.386;2024-01-30T08:52:47;4.60;71.20
44851;DHT22;30583;48.714;9.386;2024-01-30T08:55:13;4.70;70.30
44851;DHT22;30583;48.714;9.386;2024-01-30T08:57:39;4.70;70.70
44851;DHT22;30583;48.714;9.386;2024-01-30T09:00:05;4.60;70.80
44851;DHT22;30583;48.714;9.386;2024-01-30T09:02:32;4.40;71.30
44851;DHT22;30583;48.714;9.386;2024-01-30T09:04:58;4.70;70.70
44851;DHT22;30583;48.714;9.386;2024-01-30T09:07:24;5.20;69.80
44851;DHT22;30583;48.714;9.386;2024-01-30T09:09:49;5.50;69.30
44851;DHT22;30583;48.714;9.386;2024-01-30T09:12:15;5.50;69.30
44851;DHT22;30583;48.714;9.386;2024-01-30T09:14:40;5.60;69.20
44851;DHT22;30583;48.714;9.386;2024-01-30T09:17:07;5.70;68.90
44851;DHT22;30583;48.714;9.386;2024-01-30T09:19:33;5.90;68.60
44851;DHT22;30583;48.714;9.386;2024-01-30T09:21:58;6.10;67.70
44851;DHT22;30583;48.714;9.386;2024-01-30T09:24:25;6.10;67.80
44851;DHT22;30583;48.714;9.386;2024-01-30T09:26:51;6.20;67.50
44851;DHT22;30583;48.714;9.386;2024-01-30T09:29:16;6.20;67.50
44851;DHT22;30583;48.714;9.386;2024-01-30T09:31:45;6.10;67.90
44851;DHT22;30583;48.714;9.386;2024-01-30T09:34:11;6.30;67.90
44851;DHT22;30583;48.714;9.386;2024-01-30T09:36:37;6.40;67.60
44851;DHT22;30583;48.714;9.386;2024-01-30T09:39:03;6.50;67.20
44851;DHT22;30583;48.714;9.386;2024-01-30T09:44:30;6.80;66.40
44851;DHT22;30583;48.714;9.386;2024-01-30T09:46:56;6.90;65.60
44851;DHT22;30583;48.714;9.386;2024-01-30T09:49:24;6.70;66.10
44851;DHT22;30583;48.714;9.386;2024-01-30T09:51:50;7.10;65.50
44851;DHT22;30583;48.714;9.386;2024-01-30T09:54:17;7.20;65.10
44851;DHT22;30583;48.714;9.386;2024-01-30T09:56:43;7.50;64.40
44851;DHT22;30583;48.714;9.386;2024-01-30T09:59:08;7.50;64.50
44851;DHT22;30583;48.714;9.386;2024-01-30T10:01:35;7.60;64.20
44851;DHT22;30583;48.714;9.386;2024-01-30T10:04:01;7.80;63.90
44851;DHT22;30583;48.714;9.386;2024-01-30T10:06:27;8.00;63.30
44851;DHT22;30583;48.714;9.386;2024-01-30T10:08:53;8.30;62.30
44851;DHT22;30583;48.714;9.386;2024-01-30T10:11:19;8.60;61.50
44851;DHT22;30583;48.714;9.386;2024-01-30T10:13:44;8.70;60.10
44851;DHT22;30583;48.714;9.386;2024-01-30T10:16:10;8.70;60.40
44851;DHT22;30583;48.714;9.386;2024-01-30T10:18:38;8.70;60.50
44851;DHT22;30583;48.714;9.386;2024-01-30T10:21:04;8.80;59.90
44851;DHT22;30583;48.714;9.386;2024-01-30T10:23:30;8.90;59.80
44851;DHT22;30583;48.714;9.386;2024-01-30T10:25:56;8.70;60.20
44851;DHT22;30583;48.714;9.386;2024-01-30T10:28:21;9.20;59.20
44851;DHT22;30583;48.714;9.386;2024-01-30T10:30:57;9.20;59.10
44851;DHT22;30583;48.714;9.386;2024-01-30T10:33:24;9.40;58.10
44851;DHT22;30583;48.714;9.386;2024-01-30T10:35:50;9.60;57.80
44851;DHT22;30583;48.714;9.386;2024-01-30T10:38:18;9.80;56.60
44851;DHT22;30583;48.714;9.386;2024-01-30T10:40:45;9.70;57.60
44851;DHT22;30583;48.714;9.386;2024-01-30T10:43:14;9.80;56.50
44851;DHT22;30583;48.714;9.386;2024-01-30T10:45:42;9.90;56.40
44851;DHT22;30583;48.714;9.386;2024-01-30T10:48:11;10.00;55.70
44851;DHT22;30583;48.714;9.386;2024-01-30T10:50:39;9.40;56.20
44851;DHT22;30583;48.714;9.386;2024-01-30T10:53:06;9.50;55.80
44851;DHT22;30583;48.714;9.386;2024-01-30T10:55:33;9.40;56.90
44851;DHT22;30583;48.714;9.386;2024-01-30T10:58:00;9.40;57.20
44851;DHT22;30583;48.714;9.386;2024-01-30T11:00:26;9.60;56.70
44851;DHT22;30583;48.714;9.386;2024-01-30T11:02:52;9.70;56.20
44851;DHT22;30583;48.714;9.386;2024-01-30T11:05:24;9.20;56.10
44851;DHT22;30583;48.714;9.386;2024-01-30T11:07:53;8.90;58.10
44851;DHT22;30583;48.714;9.386;2024-01-30T11:10:19;9.10;58.30
44851;DHT22;30583;48.714;9.386;2024-01-30T11:12:46;9.40;57.60
44851;DHT22;30583;48.714;9.386;2024-01-30T11:15:18;12.20;55.60
44851;DHT22;30583;48.714;9.386;2024-01-30T11:17:44;10.00;59.40
44851;DHT22;30583;48.714;9.386;2024-01-30T11:20:12;9.70;61.80
44851;DHT22;30583;48.714;9.386;2024-01-30T11:22:41;9.70;62.80
44851;DHT22;30583;48.714;9.386;2024-01-30T11:25:11;9.70;60.90
44851;DHT22;30583;48.714;9.386;2024-01-30T11:27:37;9.70;61.00
44851;DHT22;30583;48.714;9.386;2024-01-30T11:30:04;9.80;59.50
44851;DHT22;30583;48.714;9.386;2024-01-30T11:32:29;10.00;59.00
44851;DHT22;30583;48.714;9.386;2024-01-30T11:34:55;9.60;59.10
44851;DHT22;30583;48.714;9.386;2024-01-30T11:37:21;9.60;60.80
44851;DHT22;30583;48.714;9.386;2024-01-30T11:39:51;9.50;60.20
44851;DHT22;30583;48.714;9.386;2024-01-30T11:42:16;9.50;59.80
44851;DHT22;30583;48.714;9.386;2024-01-30T11:44:47;9.60;58.90
44851;DHT22;30583;48.714;9.386;2024-01-30T11:47:13;9.50;59.20
44851;DHT22;30583;48.714;9.386;2024-01-30T11:49:39;9.20;59.90
44851;DHT22;30583;48.714;9.386;2024-01-30T11:52:05;9.10;60.40
44851;DHT22;30583;48.714;9.386;2024-01-30T11:54:30;9.50;58.70
44851;DHT22;30583;48.714;9.386;2024-01-30T11:56:56;9.70;58.00
44851;DHT22;30583;48.714;9.386;2024-01-30T11:59:21;9.70;57.50
44851;DHT22;30583;48.714;9.386;2024-01-30T12:01:47;9.50;58.90
44851;DHT22;30583;48.714;9.386;2024-01-30T12:04:13;10.00;58.10
44851;DHT22;30583;48.714;9.386;2024-01-30T12:06:39;10.10;57.00
44851;DHT22;30583;48.714;9.386;2024-01-30T12:09:05;10.20;57.00
44851;DHT22;30583;48.714;9.386;2024-01-30T12:11:47;10.20;57.00
44851;DHT22;30583;48.714;9.386;2024-01-30T12:14:12;10.00;58.50
44851;DHT22;30583;48.714;9.386;2024-01-30T12:16:38;9.60;59.40
44851;DHT22;30583;48.714;9.386;2024-01-30T12:19:04;9.60;59.00
44851;DHT22;30583;48.714;9.386;2024-01-30T12:21:30;9.90;58.80
44851;DHT22;30583;48.714;9.386;2024-01-30T12:23:59;9.80;58.80
44851;DHT22;30583;48.714;9.386;2024-01-30T12:26:26;9.80;58.60
44851;DHT22;30583;48.714;9.386;2024-01-30T12:28:54;10.00;57.40
44851;DHT22;30583;48.714;9.386;2024-01-30T12:31:28;10.10;57.30
44851;DHT22;30583;48.714;9.386;2024-01-30T12:33:54;10.40;56.40
44851;DHT22;30583;48.714;9.386;2024-01-30T12:36:21;10.70;56.50
44851;DHT22;30583;48.714;9.386;2024-01-30T12:38:46;10.70;56.70
44851;DHT22;30583;48.714;9.386;2024-01-30T12:41:12;10.70;56.40
44851;DHT22;30583;48.714;9.386;2024-01-30T12:43:38;10.50;56.20
44851;DHT22;30583;48.714;9.386;2024-01-30T12:46:03;10.30;57.00
44851;DHT22;30583;48.714;9.386;2024-01-30T12:48:29;10.70;56.50
44851;DHT22;30583;48.714;9.386;2024-01-30T12:50:56;10.50;56.50
44851;DHT22;30583;48.714;9.386;2024-01-30T12:53:21;10.30;56.90
44851;DHT22;30583;48.714;9.386;2024-01-30T12:55:47;10.80;56.00
44851;DHT22;30583;48.714;9.386;2024-01-30T12:58:15;10.80;56.00
44851;DHT22;30583;48.714;9.386;2024-01-30T13:00:41;10.50;56.00
44851;DHT22;30583;48.714;9.386;2024-01-30T13:03:08;10.70;56.40
44851;DHT22;30583;48.714;9.386;2024-01-30T13:05:33;10.70;56.30
44851;DHT22;30583;48.714;9.386;2024-01-30T13:07:59;10.90;55.10
44851;DHT22;30583;48.714;9.386;2024-01-30T13:10:24;11.40;53.70
44851;DHT22;30583;48.714;9.386;2024-01-30T13:12:51;11.20;54.30
44851;DHT22;30583;48.714;9.386;2024-01-30T13:15:16;11.50;54.30
44851;DHT22;30583;48.714;9.386;2024-01-30T13:17:42;11.70;53.00
44851;DHT22;30583;48.714;9.386;2024-01-30T13:20:09;11.50;52.60
44851;DHT22;30583;48.714;9.386;2024-01-30T13:22:35;11.40;53.60
44851;DHT22;30583;48.714;9.386;2024-01-30T13:25:00;11.70;52.90
44851;DHT22;30583;48.714;9.386;2024-01-30T13:27:26;12.00;53.00
44851;DHT22;30583;48.714;9.386;2024-01-30T13:29:52;12.10;52.90
44851;DHT22;30583;48.714;9.386;2024-01-30T13:32:17;11.80;53.00
44851;DHT22;30583;48.714;9.386;2024-01-30T13:34:43;11.60;53.50
44851;DHT22;30583;48.714;9.386;2024-01-30T13:37:09;11.70;53.60
44851;DHT22;30583;48.714;9.386;2024-01-30T13:39:34;11.80;53.90
44851;DHT22;30583;48.714;9.386;2024-01-30T13:42:00;11.60;54.80
44851;DHT22;30583;48.714;9.386;2024-01-30T13:44:25;11.60;55.60
44851;DHT22;30583;48.714;9.386;2024-01-30T13:46:51;11.60;55.10
44851;DHT22;30583;48.714;9.386;2024-01-30T13:49:17;11.40;56.00
44851;DHT22;30583;48.714;9.386;2024-01-30T13:51:42;11.80;54.60
44851;DHT22;30583;48.714;9.386;2024-01-30T13:54:08;12.10;53.90
44851;DHT22;30583;48.714;9.386;2024-01-30T13:56:34;11.70;54.20
44851;DHT22;30583;48.714;9.386;2024-01-30T13:58:59;11.80;54.10
44851;DHT22;30583;48.714;9.386;2024-01-30T14:01:26;11.80;53.00
44851;DHT22;30583;48.714;9.386;2024-01-30T14:03:52;11.70;53.00
44851;DHT22;30583;48.714;9.386;2024-01-30T14:06:18;11.90;53.20
44851;DHT22;30583;48.714;9.386;2024-01-30T14:08:44;11.90;53.40
44851;DHT22;30583;48.714;9.386;2024-01-30T14:11:09;12.20;53.00
44851;DHT22;30583;48.714;9.386;2024-01-30T14:13:35;12.70;52.90
44851;DHT22;30583;48.714;9.386;2024-01-30T14:16:01;12.30;51.70
44851;DHT22;30583;48.714;9.386;2024-01-30T14:18:27;11.60;53.30
44851;DHT22;30583;48.714;9.386;2024-01-30T14:20:52;11.70;53.60
44851;DHT22;30583;48.714;9.386;2024-01-30T14:23:18;11.40;53.80
44851;DHT22;30583;48.714;9.386;2024-01-30T14:25:43;11.40;54.00
44851;DHT22;30583;48.714;9.386;2024-01-30T14:28:09;11.60;53.60
44851;DHT22;30583;48.714;9.386;2024-01-30T14:30:35;11.90;53.60
44851;DHT22;30583;48.714;9.386;2024-01-30T14:33:01;12.00;53.70
44851;DHT22;30583;48.714;9.386;2024-01-30T14:35:27;12.00;53.30
44851;DHT22;30583;48.714;9.386;2024-01-30T14:37:52;11.90;54.00
44851;DHT22;30583;48.714;9.386;2024-01-30T14:40:19;11.70;54.30
44851;DHT22;30583;48.714;9.386;2024-01-30T14:42:45;11.60;54.70
44851;DHT22;30583;48.714;9.386;2024-01-30T14:45:11;11.50;54.60
44851;DHT22;30583;48.714;9.386;2024-01-30T14:47:37;11.70;54.20
44851;DHT22;30583;48.714;9.386;2024-01-30T14:50:03;11.40;54.10
44851;DHT22;30583;48.714;9.386;2024-01-30T14:52:29;11.50;54.20
44851;DHT22;30583;48.714;9.386;2024-01-30T14:54:55;11.60;54.00
44851;DHT22;30583;48.714;9.386;2024-01-30T14:57:20;11.60;54.10
44851;DHT22;30583;48.714;9.386;2024-01-30T14:59:46;11.60;54.20
44851;DHT22;30583;48.714;9.386;2024-01-30T15:02:13;11.50;54.40
44851;DHT22;30583;48.714;9.386;2024-01-30T15:04:40;11.40;53.90
44851;DHT22;30583;48.714;9.386;2024-01-30T15:07:05;11.40;54.60
44851;DHT22;30583;48.714;9.386;2024-01-30T15:09:31;11.30;54.50
44851;DHT22;30583;48.714;9.386;2024-01-30T15:11:57;11.30;54.50
44851;DHT22;30583;48.714;9.386;2024-01-30T15:14:23;11.40;54.40
44851;DHT22;30583;48.714;9.386;2024-01-30T15:16:49;11.30;55.40
44851;DHT22;30583;48.714;9.386;2024-01-30T15:19:15;11.30;55.70
44851;DHT22;30583;48.714;9.386;2024-01-30T15:21:40;11.20;56.10
44851;DHT22;30583;48.714;9.386;2024-01-30T15:24:06;11.20;56.20
44851;DHT22;30583;48.714;9.386;2024-01-30T15:26:32;11.20;56.60
44851;DHT22;30583;48.714;9.386;2024-01-30T15:28:57;11.10;57.20
44851;DHT22;30583;48.714;9.386;2024-01-30T15:31:23;11.20;56.60
44851;DHT22;30583;48.714;9.386;2024-01-30T15:33:49;11.20;56.10
44851;DHT22;30583;48.714;9.386;2024-01-30T15:36:14;11.20;56.60
44851;DHT22;30583;48.714;9.386;2024-01-30T15:38:40;11.10;56.90